San José, Costa Rica

5:19 AM CST on December 29, 2014 (GMT -0600)
APRSWXNET San Jose CR | Change Station
CLOSE
Current Station
Personal Weather Station
Location: San Jose Tobias Bolanos,
Elevation: 3608 ft
Nearby Weather Stations

Elev 3608 ft 9.92 °N, 84.09 °W | Updated 586 days ago

Mostly Cloudy
Mostly Cloudy
68 °F
Feels Like 68 °F
N
6
Wind Variable Wind from ENE
Gusts mph

Today
High -- | Low -- °F
--% Chance of Precip.
Yesterday
High -- | Low -- °F
Precip. -- in
5:51 AM 5:25 PM
First Quarter, 58% visible
Pressure 30.00 in
Visibility -9999.0 miles
Clouds
Dew Point 55 °F
Humidity 65%
Rainfall 0.11 in
Snow Depth Not available.
UV Not available.
Pollen Not available.
Air Quality Not available.
Flu Activity Not available.
METAR MROC 291100Z 11011G21KT CAVOK 20/14 A3000 NOSIG

More Conditions Fewer Conditions

Pressure 30.00 in
Visibility -9999.0 miles
Clouds
Dew Point 55 °F
Humidity 65%
Rainfall 0.11 in
Snow Depth Not available.
UV Not available.
Pollen Not available.
Air Quality Not available.
Flu Activity Not available.
METAR MROC 291100Z 11011G21KT CAVOK 20/14 A3000 NOSIG

More Conditions Fewer Conditions

10-Day Weather Forecast

Almanac

Astronomy

Dec. 29, 2014 Rise Set
Actual Time
Civil Twilight
Nautical Twilight
Astronomical Twilight
Moon
Length of Visible Light
Length of Day
Tomorrow will be .
, % of the Moon is Illuminated

Today's Extremes

Country Highs Country Lows

Community

WunderPhotos

Upload Photos

1,781,567 photos uploaded!

WunderBlogs® & News

Nearby

Air Quality

  Air Quality AQ Index Pollutant
Not available.

Snow Depth

Station Depth Elevation

Earthquake Activity

City Distance Mag. Time & Date
Minimum magnitude displayed is 2.5.

Coastal Water Temperatures

Place Temperature

Nearby Weather Stations